Hawleyville, CT

10:49 AM EDT on March 28, 2015 (GMT -0400)
NORTHEN NEWTOWN | | Change Station
CLOSE
Current Station
Personal Weather Station
Location: NEWTOWN, CT
Elevation: 282 ft
Nearby Weather Stations

Elev 282 ft 41.47 °N, 73.33 °W | Updated 8 seconds ago

Snow
Snow
30.2 °F
Feels Like 23 °F
N
8.0
Wind Variable Wind from NW
Gusts 11.0 mph

Today
High -- | Low -- °F
--% Chance of Precip.
Yesterday
High -- | Low -- °F
Precip. -- in
6:43 AM 7:14 PM
Waxing Gibbous, 63% visible
Pressure 29.82 in
Visibility 2.0 miles
Clouds Overcast 2100 ft
Windchill 23 °F
Dew Point 25 °F
Humidity 82%
Rainfall 0.00 in
Snow Depth Not available.
UV 2 out of 12
Pollen 3.60 out of 12
Air Quality Not available.
Flu Activity Not available.
SPECI KDXR 281430Z 33008KT 2SM -SN OVC021 M01/M06 A2982 RMK AO2 P0000 T10111061

More Conditions Fewer Conditions

Pressure 29.82 in
Visibility 2.0 miles
Clouds Overcast 2100 ft
Windchill 23 °F
Dew Point 25 °F
Humidity 82%
Rainfall 0.00 in
Snow Depth Not available.
UV 2 out of 12
Pollen 3.60 out of 12
Air Quality Not available.
Flu Activity Not available.
SPECI KDXR 281430Z 33008KT 2SM -SN OVC021 M01/M06 A2982 RMK AO2 P0000 T10111061

More Conditions Fewer Conditions

10-Day Weather Forecast

Almanac

Astronomy

Mar. 28, 2015 Rise Set
Actual Time
Civil Twilight
Nautical Twilight
Astronomical Twilight
Moon
Length of Visible Light
Length of Day
Tomorrow will be .
, % of the Moon is Illuminated

Today's Extremes

State Highs State Lows

Community

WunderPhotos

Upload Photos

1,808,991 photos uploaded!

WunderBlogs® & News

Nearby

Air Quality

  Air Quality AQ Index Pollutant
Not available.

Snow Depth

Station Depth Elevation

Earthquake Activity

City Distance Mag. Time & Date
Minimum magnitude displayed is 2.5.

Coastal Water Temperatures

Place Temperature

Stations

Nearby Weather Stations

Station Location Temp. Windchill Dew Point Humidity Wind Precip. Elev Updated Type